EGDY 020350Z AUTO 20003KT 9999 -RA OVC076/// 13/12 Q1016
From batch tds/metars/production/2022/10/2/h04_m25_metars.cache.csv.gz
Observed at (about 2 hours ago)
Identifier EGDY
EGDY 020320Z AUTO 18003KT 9999 OVC076/// 13/12 Q1016
From batch tds/metars/production/2022/10/2/h03_m55_metars.cache.csv.gz
Observed at (about 3 hours ago)
Identifier EGDY
EGDY 020250Z AUTO 19002KT 9999 OVC081/// 14/12 Q1016
From batch tds/metars/production/2022/10/2/h03_m29_metars.cache.csv.gz
Observed at (about 3 hours ago)
Identifier EGDY
EGDY 020220Z AUTO 21004KT 9999 OVC076/// 14/12 Q1016
From batch tds/metars/production/2022/10/2/h02_m59_metars.cache.csv.gz
Observed at (about 4 hours ago)
Identifier EGDY
EGDY 012120Z AUTO 22008KT 9999 -RA OVC089/// 14/12 Q1015
From batch tds/metars/production/2022/10/1/h21_m52_metars.cache.csv.gz
Observed at (about 9 hours ago)
Identifier EGDY
EGDY 012020Z AUTO 22008KT 9000 -RA OVC073/// 15/12 Q1014
From batch tds/metars/production/2022/10/1/h20_m55_metars.cache.csv.gz
Observed at (about 10 hours ago)
Identifier EGDY
EGDY 011950Z AUTO 24007KT 9999 OVC110/// 15/12 Q1014
From batch tds/metars/production/2022/10/1/h20_m27_metars.cache.csv.gz
Observed at (about 10 hours ago)
Identifier EGDY
EGDY 011650Z AUTO 23010KT 9999 OVC039/// 16/12 Q1012
From batch tds/metars/production/2022/10/1/h17_m24_metars.cache.csv.gz
Observed at (about 13 hours ago)
Identifier EGDY
EGDY 011620Z AUTO 24013G24KT 9999 OVC033/// 17/11 Q1012
From batch tds/metars/production/2022/10/1/h16_m56_metars.cache.csv.gz
Observed at (about 14 hours ago)
Identifier EGDY
EGDY 011450Z AUTO 26014KT 9999 FEW039/// 18/10 Q1011
From batch tds/metars/production/2022/10/1/h15_m21_metars.cache.csv.gz
Observed at (about 15 hours ago)
Identifier EGDY
EGDY 011320Z AUTO 27019KT 9999 FEW040/// 19/10 Q1010
From batch tds/metars/production/2022/10/1/h13_m52_metars.cache.csv.gz
Observed at (about 17 hours ago)
Identifier EGDY
EGDY 011220Z AUTO 26016KT 9999 FEW032/// 18/10 Q1009
From batch tds/metars/production/2022/10/1/h12_m54_metars.cache.csv.gz
Observed at (about 18 hours ago)
Identifier EGDY
EGDY 011150Z AUTO 26015KT 9999 // FEW029/// 19/12 Q1009
From batch tds/metars/production/2022/10/1/h12_m23_metars.cache.csv.gz
Observed at (about 18 hours ago)
Identifier EGDY
EGDY 010950Z AUTO 25013KT 9999 FEW023/// 16/12 Q1008
From batch tds/metars/production/2022/10/1/h10_m25_metars.cache.csv.gz
Observed at (about 20 hours ago)
Identifier EGDY
EGDY 010750Z AUTO 25008KT 9999 SCT079/// 14/12 Q1007
From batch tds/metars/production/2022/10/1/h08_m29_metars.cache.csv.gz
Observed at (about 22 hours ago)
Identifier EGDY
EGDY 010720Z AUTO 26008KT 9999 NCD 13/11 Q1006
From batch tds/metars/production/2022/10/1/h07_m59_metars.cache.csv.gz
Observed at (about 23 hours ago)
Identifier EGDY
EGDY 010650Z AUTO 25009KT 9999 OVC190/// 13/11 Q1006
From batch tds/metars/production/2022/10/1/h07_m29_metars.cache.csv.gz
Observed at (about 23 hours ago)
Identifier EGDY
EGDY 010620Z AUTO 26008KT 9999 BKN190/// 13/11 Q1005
From batch tds/metars/production/2022/10/1/h06_m55_metars.cache.csv.gz
Observed at (about 24 hours ago)
Identifier EGDY
EGDY 010350Z AUTO 25009KT 9999 NCD 14/11 Q1003
From batch tds/metars/production/2022/10/1/h04_m29_metars.cache.csv.gz
Observed at (1 day ago)
Identifier EGDY
talk